Knowlton, Canada
Current Conditions -  °F | °C
As of 8:55 AM on Saturday 25 Oct 2014 (Local Time) from KEFK Reporting Station
Clear Clear  
Wind Chill: 30°   Ceiling: Unl
Heat Index: 35°   Visibility: 10mi
Dew Point: 34°   Wind: 6mph
Humidity: 97%   Direction: 210°SSW
Pressure: 29.74"   Gusts: NA
Location:  45.22°N, 72.52°W
Report Text: KEFK 251255Z AUTO 21005KT 10SM CLR 02/01 A2974 RMK AO2 T00170013
Loading
Personal Weather Stations






























Interactive Weather Map
Tropical Storm Tracking
New forecast layout! Learn more

10-Day Weather Forecast

Advertisements
Track Severe Weather on mobile